KNKX/NKX METAR and TAF weather

Enter ICAO airport designator
Station Type Date Time Source
KNKX METAR 2020/10/29 16:55 UTC NOAA

KNKX 291655Z 24004KT 10SM CLR 23/03 A3005 RMK AO2 SLP170 T02280028 $


Station Type Date Time Source
KNKX Decoded METAR 2020/10/29 16:55 UTC NOAA

MCAS MIRAMAR, CA, United States (KNKX) 32-52N 117-09W 146M
Oct 29, 2020 - 12:55 PM EDT / 2020.10.29 1655 UTC
Wind: from the WSW (240 degrees) at 5 MPH (4 KT):0
Visibility: 10 mile(s):0
Sky conditions: clear
Temperature: 73.0 F (22.8 C)
Dew Point: 37.0 F (2.8 C)
Relative Humidity: 26%
Pressure (altimeter): 30.05 in. Hg (1017 hPa)
ob: KNKX 291655Z 24004KT 10SM CLR 23/03 A3005 RMK AO2 SLP170 T02280028
cycle: 17

Station Type Date Time Source
KNKX TAF 2020/10/29 15:57 UTC NOAA

TAF KNKX 2915/3015 VRB05KT 9999 SKC QNH2990INS
TEMPO 2919/3000 28008KT T26/2921Z T11/3013Z

Example: see airport list